CheckWX is a tool to help pilots better visualize weather data.  It is not intended as a substitute for an official pre-flight weather briefing.

07:09:49 UTC

KMIO METAR
Miami Regional Airport
Miami, Oklahoma, USA
Current

35 mins ago

KMIO 050635Z AUTO 00000KT 7SM OVC004 06/05 A3008 RMK AO2
Observed
Apr-5 @ 06:35 UTC
Visibility
Flight Rules
LIFR
Cloud Levels
  • Overcast at 400' AGL
Temperature
C / 43°F
Dewpoint
C / 41°F
Humidity
93%
Altimeter
30.08" Hg
Pressure
1018.62 hPa
Previous

55 mins ago

KMIO 050615Z AUTO 00000KT 5SM BR BKN004 OVC007 06/05 A3008 RMK AO2
Observed
Apr-5 @ 06:15 UTC
Visibility
Flight Rules
LIFR
Conditions
Mist
Cloud Levels
  • Broken at 400' AGL
  • Overcast at 700' AGL
Temperature
C / 43°F
Dewpoint
C / 41°F
Humidity
93%
Altimeter
30.08" Hg
Pressure
1018.62 hPa
Previous

1 hour ago

KMIO 050555Z AUTO 05004KT 3SM BR BKN004 OVC007 06/05 A3008 RMK AO2
Observed
Apr-5 @ 05:55 UTC
Wind
  • 050° at 4 KTS
Visibility
Flight Rules
LIFR
Conditions
Mist
Cloud Levels
  • Broken at 400' AGL
  • Overcast at 700' AGL
Temperature
C / 43°F
Dewpoint
C / 41°F
Humidity
93%
Altimeter
30.08" Hg
Pressure
1018.62 hPa